sensor_id;sensor_type;location;lat;lon;timestamp;P1;P2;P0
63180;PMS5003;49273;37.772;-122.432;2022-10-16T00:01:38;16;16;
63180;PMS5003;49273;37.772;-122.432;2022-10-16T00:04:08;16;14;
63180;PMS5003;49273;37.772;-122.432;2022-10-16T00:06:36;15;15;
63180;PMS5003;49273;37.772;-122.432;2022-10-16T00:09:05;16;15;
63180;PMS5003;49273;37.772;-122.432;2022-10-16T00:11:35;24;24;
63180;PMS5003;49273;37.772;-122.432;2022-10-16T00:14:06;17;16;
63180;PMS5003;49273;37.772;-122.432;2022-10-16T00:16:37;19;18;
63180;PMS5003;49273;37.772;-122.432;2022-10-16T00:19:06;21;21;
63180;PMS5003;49273;37.772;-122.432;2022-10-16T00:21:36;22;20;
63180;PMS5003;49273;37.772;-122.432;2022-10-16T00:24:05;16;15;
63180;PMS5003;49273;37.772;-122.432;2022-10-16T00:26:37;22;22;
63180;PMS5003;49273;37.772;-122.432;2022-10-16T00:29:06;16;16;
63180;PMS5003;49273;37.772;-122.432;2022-10-16T00:31:35;19;18;
63180;PMS5003;49273;37.772;-122.432;2022-10-16T00:34:04;16;16;
63180;PMS5003;49273;37.772;-122.432;2022-10-16T00:36:32;19;17;
63180;PMS5003;49273;37.772;-122.432;2022-10-16T00:39:01;20;20;
63180;PMS5003;49273;37.772;-122.432;2022-10-16T00:41:30;16;15;
63180;PMS5003;49273;37.772;-122.432;2022-10-16T00:44:00;17;16;
63180;PMS5003;49273;37.772;-122.432;2022-10-16T00:46:31;19;19;
63180;PMS5003;49273;37.772;-122.432;2022-10-16T00:49:05;17;16;
63180;PMS5003;49273;37.772;-122.432;2022-10-16T00:51:37;18;17;
63180;PMS5003;49273;37.772;-122.432;2022-10-16T00:54:08;22;22;
63180;PMS5003;49273;37.772;-122.432;2022-10-16T00:56:38;16;16;
63180;PMS5003;49273;37.772;-122.432;2022-10-16T00:59:10;17;17;
63180;PMS5003;49273;37.772;-122.432;2022-10-16T01:01:42;21;20;
63180;PMS5003;49273;37.772;-122.432;2022-10-16T01:04:10;16;16;
63180;PMS5003;49273;37.772;-122.432;2022-10-16T01:06:40;20;18;
63180;PMS5003;49273;37.772;-122.432;2022-10-16T01:09:17;21;20;
63180;PMS5003;49273;37.772;-122.432;2022-10-16T01:11:54;19;19;
63180;PMS5003;49273;37.772;-122.432;2022-10-16T01:14:34;22;22;
63180;PMS5003;49273;37.772;-122.432;2022-10-16T01:17:10;21;19;
63180;PMS5003;49273;37.772;-122.432;2022-10-16T01:19:49;28;28;
63180;PMS5003;49273;37.772;-122.432;2022-10-16T01:22:31;27;25;
63180;PMS5003;49273;37.772;-122.432;2022-10-16T01:25:08;32;31;
63180;PMS5003;49273;37.772;-122.432;2022-10-16T01:27:43;29;28;
63180;PMS5003;49273;37.772;-122.432;2022-10-16T01:30:15;20;19;
63180;PMS5003;49273;37.772;-122.432;2022-10-16T01:32:49;21;20;
63180;PMS5003;49273;37.772;-122.432;2022-10-16T01:35:23;24;23;
63180;PMS5003;49273;37.772;-122.432;2022-10-16T01:37:58;23;23;
63180;PMS5003;49273;37.772;-122.432;2022-10-16T01:40:30;34;30;
63180;PMS5003;49273;37.772;-122.432;2022-10-16T01:43:02;27;25;
63180;PMS5003;49273;37.772;-122.432;2022-10-16T01:45:34;25;25;
63180;PMS5003;49273;37.772;-122.432;2022-10-16T01:48:03;22;21;
63180;PMS5003;49273;37.772;-122.432;2022-10-16T01:50:34;23;22;
63180;PMS5003;49273;37.772;-122.432;2022-10-16T01:53:05;22;22;
63180;PMS5003;49273;37.772;-122.432;2022-10-16T01:55:38;19;18;
63180;PMS5003;49273;37.772;-122.432;2022-10-16T01:58:09;22;22;
63180;PMS5003;49273;37.772;-122.432;2022-10-16T02:00:39;20;20;
63180;PMS5003;49273;37.772;-122.432;2022-10-16T02:03:10;42;41;
63180;PMS5003;49273;37.772;-122.432;2022-10-16T02:05:42;43;41;
63180;PMS5003;49273;37.772;-122.432;2022-10-16T02:08:16;31;30;
63180;PMS5003;49273;37.772;-122.432;2022-10-16T02:10:44;39;37;
63180;PMS5003;49273;37.772;-122.432;2022-10-16T02:13:17;43;40;
63180;PMS5003;49273;37.772;-122.432;2022-10-16T02:15:49;39;36;
63180;PMS5003;49273;37.772;-122.432;2022-10-16T02:18:17;28;26;
63180;PMS5003;49273;37.772;-122.432;2022-10-16T02:20:55;26;22;
63180;PMS5003;49273;37.772;-122.432;2022-10-16T02:23:29;21;20;
63180;PMS5003;49273;37.772;-122.432;2022-10-16T02:26:06;23;22;
63180;PMS5003;49273;37.772;-122.432;2022-10-16T02:28:40;22;22;
63180;PMS5003;49273;37.772;-122.432;2022-10-16T02:31:14;28;27;
63180;PMS5003;49273;37.772;-122.432;2022-10-16T02:33:44;25;25;
63180;PMS5003;49273;37.772;-122.432;2022-10-16T02:36:13;19;18;
63180;PMS5003;49273;37.772;-122.432;2022-10-16T02:38:41;22;19;
63180;PMS5003;49273;37.772;-122.432;2022-10-16T02:41:10;18;18;
63180;PMS5003;49273;37.772;-122.432;2022-10-16T02:43:38;20;20;
63180;PMS5003;49273;37.772;-122.432;2022-10-16T02:46:06;23;22;
63180;PMS5003;49273;37.772;-122.432;2022-10-16T02:48:35;21;21;
63180;PMS5003;49273;37.772;-122.432;2022-10-16T02:51:03;25;24;
63180;PMS5003;49273;37.772;-122.432;2022-10-16T02:53:31;30;27;
63180;PMS5003;49273;37.772;-122.432;2022-10-16T02:55:59;21;20;
63180;PMS5003;49273;37.772;-122.432;2022-10-16T02:58:27;20;18;
63180;PMS5003;49273;37.772;-122.432;2022-10-16T03:00:56;30;27;
63180;PMS5003;49273;37.772;-122.432;2022-10-16T03:03:24;25;22;
63180;PMS5003;49273;37.772;-122.432;2022-10-16T03:05:52;23;23;
63180;PMS5003;49273;37.772;-122.432;2022-10-16T03:08:20;22;20;
63180;PMS5003;49273;37.772;-122.432;2022-10-16T03:10:47;26;22;
63180;PMS5003;49273;37.772;-122.432;2022-10-16T03:13:16;18;17;
63180;PMS5003;49273;37.772;-122.432;2022-10-16T03:15:44;21;19;
63180;PMS5003;49273;37.772;-122.432;2022-10-16T03:18:12;27;25;
63180;PMS5003;49273;37.772;-122.432;2022-10-16T03:20:41;23;23;
63180;PMS5003;49273;37.772;-122.432;2022-10-16T03:23:10;25;23;
63180;PMS5003;49273;37.772;-122.432;2022-10-16T03:25:39;24;23;
63180;PMS5003;49273;37.772;-122.432;2022-10-16T03:28:12;26;25;
63180;PMS5003;49273;37.772;-122.432;2022-10-16T03:30:40;28;26;
63180;PMS5003;49273;37.772;-122.432;2022-10-16T03:33:09;25;20;
63180;PMS5003;49273;37.772;-122.432;2022-10-16T03:35:38;24;23;
63180;PMS5003;49273;37.772;-122.432;2022-10-16T03:38:06;25;24;
63180;PMS5003;49273;37.772;-122.432;2022-10-16T03:40:34;18;17;
63180;PMS5003;49273;37.772;-122.432;2022-10-16T03:43:02;21;21;
63180;PMS5003;49273;37.772;-122.432;2022-10-16T03:45:30;25;25;
63180;PMS5003;49273;37.772;-122.432;2022-10-16T03:47:58;26;25;
63180;PMS5003;49273;37.772;-122.432;2022-10-16T03:50:26;22;22;
63180;PMS5003;49273;37.772;-122.432;2022-10-16T03:52:54;23;22;
63180;PMS5003;49273;37.772;-122.432;2022-10-16T03:55:22;50;43;
63180;PMS5003;49273;37.772;-122.432;2022-10-16T03:57:50;30;29;
63180;PMS5003;49273;37.772;-122.432;2022-10-16T04:00:18;22;21;
63180;PMS5003;49273;37.772;-122.432;2022-10-16T04:02:46;23;20;
63180;PMS5003;49273;37.772;-122.432;2022-10-16T04:05:14;23;22;
63180;PMS5003;49273;37.772;-122.432;2022-10-16T04:07:42;22;21;
63180;PMS5003;49273;37.772;-122.432;2022-10-16T04:10:10;23;22;
63180;PMS5003;49273;37.772;-122.432;2022-10-16T04:12:38;24;23;
63180;PMS5003;49273;37.772;-122.432;2022-10-16T04:15:07;29;27;
63180;PMS5003;49273;37.772;-122.432;2022-10-16T04:17:36;24;24;
63180;PMS5003;49273;37.772;-122.432;2022-10-16T04:20:04;22;22;
63180;PMS5003;49273;37.772;-122.432;2022-10-16T04:22:33;22;22;
63180;PMS5003;49273;37.772;-122.432;2022-10-16T04:25:01;22;19;
63180;PMS5003;49273;37.772;-122.432;2022-10-16T04:27:29;23;21;
63180;PMS5003;49273;37.772;-122.432;2022-10-16T04:29:57;20;20;
63180;PMS5003;49273;37.772;-122.432;2022-10-16T04:32:26;22;21;
63180;PMS5003;49273;37.772;-122.432;2022-10-16T04:34:54;27;25;
63180;PMS5003;49273;37.772;-122.432;2022-10-16T04:37:23;21;19;
63180;PMS5003;49273;37.772;-122.432;2022-10-16T04:39:51;25;24;
63180;PMS5003;49273;37.772;-122.432;2022-10-16T04:42:20;25;23;
63180;PMS5003;49273;37.772;-122.432;2022-10-16T04:44:48;23;23;
63180;PMS5003;49273;37.772;-122.432;2022-10-16T04:47:17;23;22;
63180;PMS5003;49273;37.772;-122.432;2022-10-16T04:49:45;25;22;
63180;PMS5003;49273;37.772;-122.432;2022-10-16T04:52:13;19;18;
63180;PMS5003;49273;37.772;-122.432;2022-10-16T04:54:40;23;22;
63180;PMS5003;49273;37.772;-122.432;2022-10-16T04:57:09;18;18;
63180;PMS5003;49273;37.772;-122.432;2022-10-16T04:59:37;22;22;
63180;PMS5003;49273;37.772;-122.432;2022-10-16T05:02:05;21;20;
63180;PMS5003;49273;37.772;-122.432;2022-10-16T05:04:34;37;33;
63180;PMS5003;49273;37.772;-122.432;2022-10-16T05:07:02;33;31;
63180;PMS5003;49273;37.772;-122.432;2022-10-16T05:09:30;25;23;
63180;PMS5003;49273;37.772;-122.432;2022-10-16T05:11:58;28;27;
63180;PMS5003;49273;37.772;-122.432;2022-10-16T05:14:26;37;35;
63180;PMS5003;49273;37.772;-122.432;2022-10-16T05:16:54;39;36;
63180;PMS5003;49273;37.772;-122.432;2022-10-16T05:19:21;33;31;
63180;PMS5003;49273;37.772;-122.432;2022-10-16T05:21:50;42;42;
63180;PMS5003;49273;37.772;-122.432;2022-10-16T05:24:18;62;58;
63180;PMS5003;49273;37.772;-122.432;2022-10-16T05:26:47;36;31;
63180;PMS5003;49273;37.772;-122.432;2022-10-16T05:29:15;32;31;
63180;PMS5003;49273;37.772;-122.432;2022-10-16T05:31:43;23;22;
63180;PMS5003;49273;37.772;-122.432;2022-10-16T05:34:11;42;37;
63180;PMS5003;49273;37.772;-122.432;2022-10-16T05:36:39;28;25;
63180;PMS5003;49273;37.772;-122.432;2022-10-16T05:39:07;20;19;
63180;PMS5003;49273;37.772;-122.432;2022-10-16T05:41:35;22;21;
63180;PMS5003;49273;37.772;-122.432;2022-10-16T05:44:04;26;24;
63180;PMS5003;49273;37.772;-122.432;2022-10-16T05:46:32;25;22;
63180;PMS5003;49273;37.772;-122.432;2022-10-16T05:49:00;20;19;
63180;PMS5003;49273;37.772;-122.432;2022-10-16T05:51:28;23;21;
63180;PMS5003;49273;37.772;-122.432;2022-10-16T05:53:56;19;19;
63180;PMS5003;49273;37.772;-122.432;2022-10-16T05:56:24;27;25;
63180;PMS5003;49273;37.772;-122.432;2022-10-16T05:58:52;40;35;
63180;PMS5003;49273;37.772;-122.432;2022-10-16T06:01:20;43;38;
63180;PMS5003;49273;37.772;-122.432;2022-10-16T06:03:48;47;37;
63180;PMS5003;49273;37.772;-122.432;2022-10-16T06:06:17;32;30;
63180;PMS5003;49273;37.772;-122.432;2022-10-16T06:08:48;27;23;
63180;PMS5003;49273;37.772;-122.432;2022-10-16T06:11:18;75;63;
63180;PMS5003;49273;37.772;-122.432;2022-10-16T06:13:49;61;48;
63180;PMS5003;49273;37.772;-122.432;2022-10-16T06:16:17;60;50;
63180;PMS5003;49273;37.772;-122.432;2022-10-16T06:18:46;76;63;
63180;PMS5003;49273;37.772;-122.432;2022-10-16T06:21:16;57;48;
63180;PMS5003;49273;37.772;-122.432;2022-10-16T06:23:45;59;53;
63180;PMS5003;49273;37.772;-122.432;2022-10-16T06:26:18;23;22;
63180;PMS5003;49273;37.772;-122.432;2022-10-16T06:28:47;26;24;
63180;PMS5003;49273;37.772;-122.432;2022-10-16T06:31:16;23;20;
63180;PMS5003;49273;37.772;-122.432;2022-10-16T06:33:44;38;32;
63180;PMS5003;49273;37.772;-122.432;2022-10-16T06:36:13;84;66;
63180;PMS5003;49273;37.772;-122.432;2022-10-16T06:38:43;65;60;
63180;PMS5003;49273;37.772;-122.432;2022-10-16T06:41:13;50;42;
63180;PMS5003;49273;37.772;-122.432;2022-10-16T06:43:42;26;24;
63180;PMS5003;49273;37.772;-122.432;2022-10-16T06:46:12;27;25;
63180;PMS5003;49273;37.772;-122.432;2022-10-16T06:48:41;27;26;
63180;PMS5003;49273;37.772;-122.432;2022-10-16T06:51:10;35;33;
63180;PMS5003;49273;37.772;-122.432;2022-10-16T06:53:39;30;26;
63180;PMS5003;49273;37.772;-122.432;2022-10-16T06:56:08;30;27;
63180;PMS5003;49273;37.772;-122.432;2022-10-16T06:58:38;24;23;
63180;PMS5003;49273;37.772;-122.432;2022-10-16T07:01:07;24;22;
63180;PMS5003;49273;37.772;-122.432;2022-10-16T07:03:36;33;33;
63180;PMS5003;49273;37.772;-122.432;2022-10-16T07:06:05;22;21;
63180;PMS5003;49273;37.772;-122.432;2022-10-16T07:08:35;21;21;
63180;PMS5003;49273;37.772;-122.432;2022-10-16T07:11:05;30;27;
63180;PMS5003;49273;37.772;-122.432;2022-10-16T07:13:36;27;26;
63180;PMS5003;49273;37.772;-122.432;2022-10-16T07:16:05;30;28;
63180;PMS5003;49273;37.772;-122.432;2022-10-16T07:18:33;31;30;
63180;PMS5003;49273;37.772;-122.432;2022-10-16T07:21:03;24;22;
63180;PMS5003;49273;37.772;-122.432;2022-10-16T07:23:32;22;19;
63180;PMS5003;49273;37.772;-122.432;2022-10-16T07:26:00;25;24;
63180;PMS5003;49273;37.772;-122.432;2022-10-16T07:28:29;22;20;
63180;PMS5003;49273;37.772;-122.432;2022-10-16T07:31:00;24;23;
63180;PMS5003;49273;37.772;-122.432;2022-10-16T07:33:28;33;31;
63180;PMS5003;49273;37.772;-122.432;2022-10-16T07:35:56;25;23;
63180;PMS5003;49273;37.772;-122.432;2022-10-16T07:38:24;29;28;
63180;PMS5003;49273;37.772;-122.432;2022-10-16T07:40:56;22;21;
63180;PMS5003;49273;37.772;-122.432;2022-10-16T07:43:29;22;21;
63180;PMS5003;49273;37.772;-122.432;2022-10-16T07:45:58;19;19;
63180;PMS5003;49273;37.772;-122.432;2022-10-16T07:48:27;21;20;
63180;PMS5003;49273;37.772;-122.432;2022-10-16T07:50:57;22;20;
63180;PMS5003;49273;37.772;-122.432;2022-10-16T07:53:25;22;19;
63180;PMS5003;49273;37.772;-122.432;2022-10-16T07:55:54;26;19;
63180;PMS5003;49273;37.772;-122.432;2022-10-16T07:58:25;21;20;
63180;PMS5003;49273;37.772;-122.432;2022-10-16T08:00:52;20;20;
63180;PMS5003;49273;37.772;-122.432;2022-10-16T08:03:20;19;16;
63180;PMS5003;49273;37.772;-122.432;2022-10-16T08:05:49;22;21;
63180;PMS5003;49273;37.772;-122.432;2022-10-16T08:08:18;27;27;
63180;PMS5003;49273;37.772;-122.432;2022-10-16T08:10:46;21;18;
63180;PMS5003;49273;37.772;-122.432;2022-10-16T08:13:14;26;24;
63180;PMS5003;49273;37.772;-122.432;2022-10-16T08:15:42;23;23;
63180;PMS5003;49273;37.772;-122.432;2022-10-16T08:18:11;25;24;
63180;PMS5003;49273;37.772;-122.432;2022-10-16T08:20:40;27;21;
63180;PMS5003;49273;37.772;-122.432;2022-10-16T08:23:09;29;27;
63180;PMS5003;49273;37.772;-122.432;2022-10-16T08:25:39;21;21;
63180;PMS5003;49273;37.772;-122.432;2022-10-16T08:28:09;26;24;
63180;PMS5003;49273;37.772;-122.432;2022-10-16T08:30:37;23;21;
63180;PMS5003;49273;37.772;-122.432;2022-10-16T08:33:06;25;22;
63180;PMS5003;49273;37.772;-122.432;2022-10-16T08:35:34;20;20;
63180;PMS5003;49273;37.772;-122.432;2022-10-16T08:38:02;28;26;
63180;PMS5003;49273;37.772;-122.432;2022-10-16T08:40:31;30;29;
63180;PMS5003;49273;37.772;-122.432;2022-10-16T08:43:05;37;34;
63180;PMS5003;49273;37.772;-122.432;2022-10-16T08:45:51;30;27;
63180;PMS5003;49273;37.772;-122.432;2022-10-16T08:48:39;29;27;
63180;PMS5003;49273;37.772;-122.432;2022-10-16T08:51:12;27;25;
63180;PMS5003;49273;37.772;-122.432;2022-10-16T08:53:48;28;27;
63180;PMS5003;49273;37.772;-122.432;2022-10-16T08:56:21;30;26;
63180;PMS5003;49273;37.772;-122.432;2022-10-16T08:58:51;28;27;
63180;PMS5003;49273;37.772;-122.432;2022-10-16T09:01:21;33;30;
63180;PMS5003;49273;37.772;-122.432;2022-10-16T09:03:55;23;23;
63180;PMS5003;49273;37.772;-122.432;2022-10-16T09:06:42;25;24;
63180;PMS5003;49273;37.772;-122.432;2022-10-16T09:09:24;33;33;
63180;PMS5003;49273;37.772;-122.432;2022-10-16T09:12:05;32;31;
63180;PMS5003;49273;37.772;-122.432;2022-10-16T09:14:42;39;34;
63180;PMS5003;49273;37.772;-122.432;2022-10-16T09:17:22;34;32;
63180;PMS5003;49273;37.772;-122.432;2022-10-16T09:20:00;36;35;
63180;PMS5003;49273;37.772;-122.432;2022-10-16T09:22:40;34;34;
63180;PMS5003;49273;37.772;-122.432;2022-10-16T09:25:11;39;37;
63180;PMS5003;49273;37.772;-122.432;2022-10-16T09:27:41;35;32;
63180;PMS5003;49273;37.772;-122.432;2022-10-16T09:30:12;35;33;
63180;PMS5003;49273;37.772;-122.432;2022-10-16T09:32:43;38;35;
63180;PMS5003;49273;37.772;-122.432;2022-10-16T09:35:15;33;32;
63180;PMS5003;49273;37.772;-122.432;2022-10-16T09:37:47;29;28;
63180;PMS5003;49273;37.772;-122.432;2022-10-16T09:40:24;34;32;
63180;PMS5003;49273;37.772;-122.432;2022-10-16T09:43:02;35;33;
63180;PMS5003;49273;37.772;-122.432;2022-10-16T09:45:43;29;26;
63180;PMS5003;49273;37.772;-122.432;2022-10-16T09:48:22;30;28;
63180;PMS5003;49273;37.772;-122.432;2022-10-16T09:50:58;38;34;
63180;PMS5003;49273;37.772;-122.432;2022-10-16T09:53:37;33;30;
63180;PMS5003;49273;37.772;-122.432;2022-10-16T09:56:20;33;32;
63180;PMS5003;49273;37.772;-122.432;2022-10-16T09:58:50;26;25;
63180;PMS5003;49273;37.772;-122.432;2022-10-16T10:01:19;32;29;
63180;PMS5003;49273;37.772;-122.432;2022-10-16T10:03:50;30;28;
63180;PMS5003;49273;37.772;-122.432;2022-10-16T10:06:23;30;30;
63180;PMS5003;49273;37.772;-122.432;2022-10-16T10:08:55;27;25;
63180;PMS5003;49273;37.772;-122.432;2022-10-16T10:11:43;28;27;
63180;PMS5003;49273;37.772;-122.432;2022-10-16T10:14:23;36;35;
63180;PMS5003;49273;37.772;-122.432;2022-10-16T10:17:02;32;30;
63180;PMS5003;49273;37.772;-122.432;2022-10-16T10:19:40;32;31;
63180;PMS5003;49273;37.772;-122.432;2022-10-16T10:22:16;33;32;
63180;PMS5003;49273;37.772;-122.432;2022-10-16T10:24:56;31;29;
63180;PMS5003;49273;37.772;-122.432;2022-10-16T10:27:38;34;33;
63180;PMS5003;49273;37.772;-122.432;2022-10-16T10:30:15;32;31;
63180;PMS5003;49273;37.772;-122.432;2022-10-16T10:32:51;29;27;
63180;PMS5003;49273;37.772;-122.432;2022-10-16T10:35:40;34;32;
63180;PMS5003;49273;37.772;-122.432;2022-10-16T10:38:17;28;27;
63180;PMS5003;49273;37.772;-122.432;2022-10-16T10:40:56;29;27;
63180;PMS5003;49273;37.772;-122.432;2022-10-16T10:43:39;33;31;
63180;PMS5003;49273;37.772;-122.432;2022-10-16T10:46:18;28;26;
63180;PMS5003;49273;37.772;-122.432;2022-10-16T10:49:08;35;31;
63180;PMS5003;49273;37.772;-122.432;2022-10-16T10:51:50;34;34;
63180;PMS5003;49273;37.772;-122.432;2022-10-16T10:54:29;32;32;
63180;PMS5003;49273;37.772;-122.432;2022-10-16T10:57:07;30;27;
63180;PMS5003;49273;37.772;-122.432;2022-10-16T10:59:54;38;32;
63180;PMS5003;49273;37.772;-122.432;2022-10-16T11:02:31;29;26;
63180;PMS5003;49273;37.772;-122.432;2022-10-16T11:05:16;32;30;
63180;PMS5003;49273;37.772;-122.432;2022-10-16T11:07:57;29;27;
63180;PMS5003;49273;37.772;-122.432;2022-10-16T11:10:30;28;27;
63180;PMS5003;49273;37.772;-122.432;2022-10-16T11:13:06;32;31;
63180;PMS5003;49273;37.772;-122.432;2022-10-16T11:15:43;36;34;
63180;PMS5003;49273;37.772;-122.432;2022-10-16T11:18:16;33;30;
63180;PMS5003;49273;37.772;-122.432;2022-10-16T11:20:50;30;29;
63180;PMS5003;49273;37.772;-122.432;2022-10-16T11:23:23;32;30;
63180;PMS5003;49273;37.772;-122.432;2022-10-16T11:25:56;30;29;
63180;PMS5003;49273;37.772;-122.432;2022-10-16T11:28:29;32;26;
63180;PMS5003;49273;37.772;-122.432;2022-10-16T11:31:03;28;27;
63180;PMS5003;49273;37.772;-122.432;2022-10-16T11:33:36;30;30;
63180;PMS5003;49273;37.772;-122.432;2022-10-16T11:36:11;30;28;
63180;PMS5003;49273;37.772;-122.432;2022-10-16T11:38:46;28;28;
63180;PMS5003;49273;37.772;-122.432;2022-10-16T11:41:22;29;26;
63180;PMS5003;49273;37.772;-122.432;2022-10-16T11:44:03;29;29;
63180;PMS5003;49273;37.772;-122.432;2022-10-16T11:46:40;32;30;
63180;PMS5003;49273;37.772;-122.432;2022-10-16T11:49:16;24;24;
63180;PMS5003;49273;37.772;-122.432;2022-10-16T11:51:48;24;24;
63180;PMS5003;49273;37.772;-122.432;2022-10-16T11:54:26;25;23;
63180;PMS5003;49273;37.772;-122.432;2022-10-16T11:57:05;29;26;
63180;PMS5003;49273;37.772;-122.432;2022-10-16T11:59:42;26;25;
63180;PMS5003;49273;37.772;-122.432;2022-10-16T12:02:23;21;18;
63180;PMS5003;49273;37.772;-122.432;2022-10-16T12:05:01;20;20;
63180;PMS5003;49273;37.772;-122.432;2022-10-16T12:07:40;18;17;
63180;PMS5003;49273;37.772;-122.432;2022-10-16T12:10:18;21;19;
63180;PMS5003;49273;37.772;-122.432;2022-10-16T12:12:49;18;18;
63180;PMS5003;49273;37.772;-122.432;2022-10-16T12:15:19;18;17;
63180;PMS5003;49273;37.772;-122.432;2022-10-16T12:17:49;36;34;
63180;PMS5003;49273;37.772;-122.432;2022-10-16T12:20:21;24;22;
63180;PMS5003;49273;37.772;-122.432;2022-10-16T12:22:53;20;18;
63180;PMS5003;49273;37.772;-122.432;2022-10-16T12:25:24;17;17;
63180;PMS5003;49273;37.772;-122.432;2022-10-16T12:27:54;24;24;
63180;PMS5003;49273;37.772;-122.432;2022-10-16T12:30:28;17;17;
63180;PMS5003;49273;37.772;-122.432;2022-10-16T12:32:58;21;19;
63180;PMS5003;49273;37.772;-122.432;2022-10-16T12:35:30;15;15;
63180;PMS5003;49273;37.772;-122.432;2022-10-16T12:38:08;21;21;
63180;PMS5003;49273;37.772;-122.432;2022-10-16T12:40:43;16;14;
63180;PMS5003;49273;37.772;-122.432;2022-10-16T12:43:47;21;20;
63180;PMS5003;49273;37.772;-122.432;2022-10-16T12:46:24;18;17;
63180;PMS5003;49273;37.772;-122.432;2022-10-16T12:49:21;23;23;
63180;PMS5003;49273;37.772;-122.432;2022-10-16T12:51:56;27;27;
63180;PMS5003;49273;37.772;-122.432;2022-10-16T12:54:27;27;25;
63180;PMS5003;49273;37.772;-122.432;2022-10-16T12:57:01;21;20;
63180;PMS5003;49273;37.772;-122.432;2022-10-16T12:59:48;23;21;
63180;PMS5003;49273;37.772;-122.432;2022-10-16T13:02:34;20;20;
63180;PMS5003;49273;37.772;-122.432;2022-10-16T13:05:23;19;17;
63180;PMS5003;49273;37.772;-122.432;2022-10-16T13:08:02;21;20;
63180;PMS5003;49273;37.772;-122.432;2022-10-16T13:10:47;17;17;
63180;PMS5003;49273;37.772;-122.432;2022-10-16T13:13:34;15;15;
63180;PMS5003;49273;37.772;-122.432;2022-10-16T13:16:17;17;15;
63180;PMS5003;49273;37.772;-122.432;2022-10-16T13:18:56;16;15;
63180;PMS5003;49273;37.772;-122.432;2022-10-16T13:21:40;17;17;
63180;PMS5003;49273;37.772;-122.432;2022-10-16T13:24:19;18;18;
63180;PMS5003;49273;37.772;-122.432;2022-10-16T13:27:01;28;27;
63180;PMS5003;49273;37.772;-122.432;2022-10-16T13:29:37;18;18;
63180;PMS5003;49273;37.772;-122.432;2022-10-16T13:32:07;16;15;
63180;PMS5003;49273;37.772;-122.432;2022-10-16T13:34:43;15;15;
63180;PMS5003;49273;37.772;-122.432;2022-10-16T13:37:16;21;20;
63180;PMS5003;49273;37.772;-122.432;2022-10-16T13:39:45;19;18;
63180;PMS5003;49273;37.772;-122.432;2022-10-16T13:42:14;19;15;
63180;PMS5003;49273;37.772;-122.432;2022-10-16T13:44:48;17;16;
63180;PMS5003;49273;37.772;-122.432;2022-10-16T13:47:18;19;17;
63180;PMS5003;49273;37.772;-122.432;2022-10-16T13:49:58;18;17;
63180;PMS5003;49273;37.772;-122.432;2022-10-16T13:52:27;18;17;
63180;PMS5003;49273;37.772;-122.432;2022-10-16T13:54:55;17;16;
63180;PMS5003;49273;37.772;-122.432;2022-10-16T13:57:24;16;14;
63180;PMS5003;49273;37.772;-122.432;2022-10-16T13:59:52;17;17;
63180;PMS5003;49273;37.772;-122.432;2022-10-16T14:02:22;16;16;
63180;PMS5003;49273;37.772;-122.432;2022-10-16T14:04:55;16;15;
63180;PMS5003;49273;37.772;-122.432;2022-10-16T14:07:26;17;16;
63180;PMS5003;49273;37.772;-122.432;2022-10-16T14:09:55;29;25;
63180;PMS5003;49273;37.772;-122.432;2022-10-16T14:12:25;21;19;
63180;PMS5003;49273;37.772;-122.432;2022-10-16T14:14:55;19;18;
63180;PMS5003;49273;37.772;-122.432;2022-10-16T14:17:27;18;17;
63180;PMS5003;49273;37.772;-122.432;2022-10-16T14:19:58;14;14;
63180;PMS5003;49273;37.772;-122.432;2022-10-16T14:22:30;13;12;
63180;PMS5003;49273;37.772;-122.432;2022-10-16T14:25:00;14;13;
63180;PMS5003;49273;37.772;-122.432;2022-10-16T14:27:40;16;15;
63180;PMS5003;49273;37.772;-122.432;2022-10-16T14:30:11;14;13;
63180;PMS5003;49273;37.772;-122.432;2022-10-16T14:32:42;24;19;
63180;PMS5003;49273;37.772;-122.432;2022-10-16T14:35:22;16;16;
63180;PMS5003;49273;37.772;-122.432;2022-10-16T14:37:52;16;16;
63180;PMS5003;49273;37.772;-122.432;2022-10-16T14:40:22;21;20;
63180;PMS5003;49273;37.772;-122.432;2022-10-16T14:42:51;13;13;
63180;PMS5003;49273;37.772;-122.432;2022-10-16T14:45:21;15;15;
63180;PMS5003;49273;37.772;-122.432;2022-10-16T14:47:52;14;13;
63180;PMS5003;49273;37.772;-122.432;2022-10-16T14:50:24;14;13;
63180;PMS5003;49273;37.772;-122.432;2022-10-16T14:52:52;21;18;
63180;PMS5003;49273;37.772;-122.432;2022-10-16T14:55:20;16;14;
63180;PMS5003;49273;37.772;-122.432;2022-10-16T14:57:48;14;13;
63180;PMS5003;49273;37.772;-122.432;2022-10-16T15:00:18;14;13;
63180;PMS5003;49273;37.772;-122.432;2022-10-16T15:02:48;14;12;
63180;PMS5003;49273;37.772;-122.432;2022-10-16T15:05:17;25;25;
63180;PMS5003;49273;37.772;-122.432;2022-10-16T15:07:48;18;17;
63180;PMS5003;49273;37.772;-122.432;2022-10-16T15:10:16;15;14;
63180;PMS5003;49273;37.772;-122.432;2022-10-16T15:12:45;15;15;
63180;PMS5003;49273;37.772;-122.432;2022-10-16T15:15:19;17;14;
63180;PMS5003;49273;37.772;-122.432;2022-10-16T15:18:01;15;13;
63180;PMS5003;49273;37.772;-122.432;2022-10-16T15:20:30;15;14;
63180;PMS5003;49273;37.772;-122.432;2022-10-16T15:22:59;15;13;
63180;PMS5003;49273;37.772;-122.432;2022-10-16T15:25:33;12;12;
63180;PMS5003;49273;37.772;-122.432;2022-10-16T15:28:04;16;13;
63180;PMS5003;49273;37.772;-122.432;2022-10-16T15:30:32;11;9;
63180;PMS5003;49273;37.772;-122.432;2022-10-16T15:33:01;14;13;
63180;PMS5003;49273;37.772;-122.432;2022-10-16T15:35:30;12;11;
63180;PMS5003;49273;37.772;-122.432;2022-10-16T15:37:58;18;17;
63180;PMS5003;49273;37.772;-122.432;2022-10-16T15:40:27;16;15;
63180;PMS5003;49273;37.772;-122.432;2022-10-16T15:42:55;12;11;
63180;PMS5003;49273;37.772;-122.432;2022-10-16T15:45:23;11;11;
63180;PMS5003;49273;37.772;-122.432;2022-10-16T15:47:51;17;14;
63180;PMS5003;49273;37.772;-122.432;2022-10-16T15:50:19;12;11;
63180;PMS5003;49273;37.772;-122.432;2022-10-16T15:52:47;15;14;
63180;PMS5003;49273;37.772;-122.432;2022-10-16T15:55:16;16;14;
63180;PMS5003;49273;37.772;-122.432;2022-10-16T15:57:45;24;22;
63180;PMS5003;49273;37.772;-122.432;2022-10-16T16:00:14;18;18;
63180;PMS5003;49273;37.772;-122.432;2022-10-16T16:02:44;38;36;